Terminal Aerodrome Forecast
Issued by NWS Knoxville/Tri Cities, TN

Home | Current Version | Previous Version | Text Only | Print | Product List | Glossary On
Versions: 1 2 3 4 5 6 7 8 9 10 11 12 13 14 15 16 17 18 19 20 21 22 23 24 25 26 27 28
000
FTUS44 KMRX 012324
TAFTRI
TAF
KTRI 012324Z 0200/0224 25005KT P6SM SCT060 SCT100
     FM020600 00000KT 4SM BR SCT250
      TEMPO 0208/0212 2SM BR
     FM021200 00000KT 5SM BR SCT045 BKN250
     FM021500 23008KT P6SM VCSH BKN040 OVC100
     FM021800 24008KT P6SM VCTS BKN050CB OVC250=

USA.gov is the U.S. government's official web portal to all federal, state and local government web resources and services.